Time;durP1;ratioP1;P1;durP2;ratioP2;P2;SDS_P1;SDS_P2;PMS_P1;PMS_P2;Temp;Humidity;BMP_temperature;BMP_pressure;BME280_temperature;BME280_humidity;BME280_pressure;Samples;Min_cycle;Max_cycle;Signal;HPM_P1;HPM_P2
2021/11/22 00:00:23;;;;;;;6.43;3.97;;;;;;;5.52;78.19;101533.09;5039292;28;20172;-69
2021/11/22 00:02:50;;;;;;;5.50;4.00;;;;;;;5.37;78.72;101522.97;5038863;28;20189;-70
2021/11/22 00:05:15;;;;;;;6.87;4.40;;;;;;;5.90;76.71;101530.34;5039741;28;20419;-70
2021/11/22 00:07:41;;;;;;;4.40;3.93;;;;;;;5.87;76.82;101530.22;5039195;28;20458;-71
2021/11/22 00:10:06;;;;;;;4.27;3.83;;;;;;;5.63;76.96;101527.47;5039248;28;20571;-71
2021/11/22 00:12:35;;;;;;;5.90;3.70;;;;;;;5.78;76.89;101532.41;5039485;28;20432;-69
2021/11/22 00:15:03;;;;;;;3.77;3.40;;;;;;;5.66;77.00;101532.78;5039157;28;20169;-70
2021/11/22 00:17:30;;;;;;;3.63;3.33;;;;;;;5.82;76.13;101542.06;5039010;28;20425;-68
2021/11/22 00:19:57;;;;;;;4.70;3.70;;;;;;;5.57;76.91;101548.78;5039397;28;20409;-67
2021/11/22 00:22:23;;;;;;;4.30;3.60;;;;;;;5.98;75.30;101554.88;5038953;28;20458;-68
2021/11/22 00:24:48;;;;;;;5.43;3.47;;;;;;;5.90;75.60;101561.41;5038784;28;20857;-70
2021/11/22 00:27:14;;;;;;;5.50;4.03;;;;;;;5.63;76.80;101563.69;5022009;28;20540;-67
2021/11/22 00:29:39;;;;;;;8.63;4.73;;;;;;;5.83;75.96;101562.84;5038797;28;20202;-69
2021/11/22 00:32:05;;;;;;;3.80;3.43;;;;;;;5.70;76.17;101573.50;5021802;28;20178;-67
2021/11/22 00:34:32;;;;;;;4.90;3.47;;;;;;;5.81;75.52;101571.38;5042357;28;20169;-69
2021/11/22 00:36:57;;;;;;;5.20;4.40;;;;;;;5.95;75.23;101572.81;5041157;28;20417;-69
2021/11/22 00:39:23;;;;;;;9.23;7.73;;;;;;;5.85;74.90;101583.63;5039927;28;20438;-68
2021/11/22 00:41:48;;;;;;;6.43;4.03;;;;;;;5.67;75.65;101579.44;5039040;28;20528;-68
2021/11/22 00:44:15;;;;;;;7.33;5.50;;;;;;;5.70;76.88;101581.25;5038575;28;20197;-68
2021/11/22 00:46:41;;;;;;;9.97;6.13;;;;;;;5.86;75.80;101590.56;5038548;28;20198;-69
2021/11/22 00:49:06;;;;;;;11.57;8.53;;;;;;;5.85;75.35;101594.84;5021750;28;20805;-69
2021/11/22 00:51:32;;;;;;;8.50;5.57;;;;;;;5.84;75.32;101597.38;5038158;28;20518;-68
2021/11/22 00:53:57;;;;;;;6.10;4.77;;;;;;;5.50;75.75;101591.59;5038430;28;20177;-68
2021/11/22 00:56:23;;;;;;;3.43;3.10;;;;;;;5.11;77.17;101603.63;5038698;28;20166;-70
2021/11/22 00:58:49;;;;;;;6.10;4.87;;;;;;;5.11;77.75;101601.94;5038261;28;20470;-69
2021/11/22 01:01:14;;;;;;;5.27;4.20;;;;;;;5.22;76.87;101603.31;5038181;28;20202;-70
2021/11/22 01:03:39;;;;;;;5.93;4.30;;;;;;;5.33;76.88;101613.25;5038764;28;20201;-70
2021/11/22 01:06:05;;;;;;;5.80;4.27;;;;;;;5.02;77.40;101629.94;5038344;28;20170;-69
2021/11/22 01:08:30;;;;;;;4.20;3.80;;;;;;;4.84;77.48;101632.53;5021120;28;20544;-69
2021/11/22 01:10:55;;;;;;;4.83;4.33;;;;;;;4.81;78.42;101638.44;5038670;28;20216;-69
2021/11/22 01:13:21;;;;;;;3.40;3.00;;;;;;;4.77;78.31;101643.41;5037990;28;20166;-69
2021/11/22 01:15:46;;;;;;;5.17;3.60;;;;;;;4.68;78.79;101646.41;5037497;28;20489;-69
2021/11/22 01:18:12;;;;;;;6.97;4.97;;;;;;;4.88;78.74;101653.44;5038513;28;20173;-70
2021/11/22 01:20:38;;;;;;;3.87;3.50;;;;;;;4.64;78.64;101655.72;5037938;28;20192;-70
2021/11/22 01:23:09;;;;;;;5.03;4.50;;;;;;;9.02;69.49;101644.47;5037825;28;20173;-64
2021/11/22 01:25:35;;;;;;;5.20;3.60;;;;;;;6.96;73.35;101655.50;5038613;28;20380;-72
2021/11/22 01:28:01;;;;;;;4.90;3.70;;;;;;;5.85;74.29;101658.66;5038172;28;20387;-71
2021/11/22 01:30:27;;;;;;;5.70;4.50;;;;;;;5.31;76.39;101667.47;5020919;28;20508;-71
2021/11/22 01:32:52;;;;;;;4.70;3.83;;;;;;;4.94;77.58;101676.09;5038334;28;20178;-72
2021/11/22 01:35:18;;;;;;;4.47;4.07;;;;;;;4.68;77.92;101675.72;5038391;28;20174;-72
2021/11/22 01:37:44;;;;;;;4.50;3.27;;;;;;;4.75;77.48;101681.19;5038181;28;20488;-72
2021/11/22 01:40:11;;;;;;;3.33;3.03;;;;;;;4.59;78.15;101688.19;5038487;28;20253;-73
2021/11/22 01:42:38;;;;;;;3.80;3.10;;;;;;;4.64;77.64;101694.47;5020667;28;20727;-72
2021/11/22 01:45:05;;;;;;;4.70;4.13;;;;;;;4.56;78.55;101690.63;5037890;28;20518;-71
2021/11/22 01:47:31;;;;;;;3.43;3.13;;;;;;;4.77;77.01;101693.38;5038449;28;20405;-72
2021/11/22 01:49:56;;;;;;;4.93;4.07;;;;;;;4.72;76.48;101700.91;5037978;28;20397;-71
2021/11/22 01:52:22;;;;;;;4.17;3.20;;;;;;;4.83;76.70;101701.44;5047584;28;20221;-71
2021/11/22 01:54:49;;;;;;;3.67;3.37;;;;;;;5.17;75.16;101705.63;5057496;28;20177;-71
2021/11/22 01:57:15;;;;;;;4.07;3.30;;;;;;;5.00;75.76;101709.97;5057655;28;20173;-71
2021/11/22 01:59:40;;;;;;;3.83;3.40;;;;;;;5.02;75.01;101708.38;5057758;28;20813;-71
2021/11/22 02:02:06;;;;;;;3.30;2.83;;;;;;;5.12;75.23;101716.56;5057378;28;20218;-70
2021/11/22 02:04:31;;;;;;;4.67;3.63;;;;;;;5.26;74.47;101714.63;5057668;28;20285;-72
2021/11/22 02:06:57;;;;;;;9.17;6.17;;;;;;;5.21;74.23;101725.63;5058102;28;20236;-71
2021/11/22 02:09:22;;;;;;;5.60;4.43;;;;;;;4.84;75.97;101735.88;5057921;28;20195;-70
2021/11/22 02:11:48;;;;;;;5.53;3.07;;;;;;;5.10;74.98;101731.09;5057537;28;20173;-71
2021/11/22 02:14:14;;;;;;;7.60;4.00;;;;;;;5.12;75.11;101732.94;5057801;28;20234;-71
2021/11/22 02:16:39;;;;;;;4.10;3.70;;;;;;;5.16;74.76;101734.88;5058108;28;20412;-70
2021/11/22 02:19:04;;;;;;;3.67;3.33;;;;;;;4.67;75.76;101733.38;5057617;28;20258;-71
2021/11/22 02:21:30;;;;;;;4.23;3.60;;;;;;;4.84;75.45;101729.03;5057435;28;20211;-71
2021/11/22 02:23:56;;;;;;;5.07;3.43;;;;;;;4.79;75.68;101738.25;5057888;28;20280;-70
2021/11/22 02:26:22;;;;;;;5.63;3.97;;;;;;;5.02;74.67;101731.63;5059468;28;20420;-70
2021/11/22 02:28:47;;;;;;;4.53;4.10;;;;;;;5.05;74.90;101736.06;5061279;28;20256;-71
2021/11/22 02:31:13;;;;;;;4.00;3.60;;;;;;;4.68;76.06;101748.06;5061502;28;20253;-70
2021/11/22 02:33:38;;;;;;;4.77;3.47;;;;;;;4.83;76.22;101747.94;5061031;28;20176;-71
2021/11/22 02:36:04;;;;;;;3.93;3.63;;;;;;;4.52;76.73;101751.56;5060906;28;20170;-72
2021/11/22 02:38:39;;;;;;;3.70;3.00;;;;;;;4.37;77.71;101758.50;5061254;28;20189;-71
2021/11/22 02:41:07;;;;;;;3.23;2.90;;;;;;;4.37;77.44;101766.25;5060757;28;20169;-71
2021/11/22 02:43:35;;;;;;;4.27;3.33;;;;;;;4.44;77.56;101770.94;5060802;28;20466;-71
2021/11/22 02:46:01;;;;;;;5.43;3.73;;;;;;;4.46;77.30;101773.59;5060093;28;20420;-72
2021/11/22 02:48:26;;;;;;;4.33;3.40;;;;;;;4.30;78.44;101778.00;5060802;28;20443;-71
2021/11/22 02:50:52;;;;;;;3.77;3.47;;;;;;;4.17;78.77;101788.47;5061239;28;20412;-71
2021/11/22 02:53:17;;;;;;;3.67;3.33;;;;;;;4.19;78.47;101787.75;5060642;28;20226;-71
2021/11/22 02:55:42;;;;;;;3.70;3.10;;;;;;;4.27;78.23;101784.66;5060704;28;20188;-71
2021/11/22 02:58:08;;;;;;;4.20;3.40;;;;;;;4.28;77.97;101784.75;5061221;28;20227;-71
2021/11/22 03:00:35;;;;;;;5.80;4.70;;;;;;;4.45;77.24;101792.47;5060592;28;20239;-72
2021/11/22 03:03:00;;;;;;;8.20;3.40;;;;;;;4.16;78.52;101800.47;5060385;28;20173;-72
2021/11/22 03:05:25;;;;;;;6.10;3.53;;;;;;;4.24;78.47;101803.47;5061123;28;20658;-73
2021/11/22 03:07:54;;;;;;;3.80;3.50;;;;;;;4.24;78.40;101800.88;5060483;28;20231;-71
2021/11/22 03:10:20;;;;;;;6.50;3.57;;;;;;;4.13;78.36;101805.47;5060377;28;20218;-72
2021/11/22 03:12:46;;;;;;;4.20;3.80;;;;;;;4.25;78.25;101807.81;5060883;28;20548;-72
2021/11/22 03:15:14;;;;;;;6.10;3.70;;;;;;;4.03;78.79;101809.28;5060336;28;20506;-71
2021/11/22 03:17:41;;;;;;;8.00;4.90;;;;;;;4.07;79.43;101807.72;5060212;28;20419;-72
2021/11/22 03:20:08;;;;;;;5.10;4.27;;;;;;;4.21;78.98;101811.94;5060752;28;20462;-70
2021/11/22 03:22:34;;;;;;;6.63;4.70;;;;;;;4.37;78.34;101811.03;5059958;28;20420;-72
2021/11/22 03:24:59;;;;;;;7.33;4.10;;;;;;;4.18;78.70;101814.34;5060136;28;20732;-70
2021/11/22 03:27:25;;;;;;;4.27;3.87;;;;;;;4.10;79.66;101807.91;5060621;28;20212;-71
2021/11/22 03:29:50;;;;;;;4.40;3.77;;;;;;;3.85;79.90;101818.59;5059289;28;20177;-72
2021/11/22 03:32:16;;;;;;;5.40;4.07;;;;;;;4.05;79.67;101819.66;5059992;28;20173;-71
2021/11/22 03:34:41;;;;;;;6.10;4.50;;;;;;;3.89;79.34;101825.69;5060384;28;20190;-72
2021/11/22 03:37:08;;;;;;;4.80;4.27;;;;;;;3.91;80.31;101826.69;5059268;28;20193;-71
2021/11/22 03:39:33;;;;;;;6.27;3.90;;;;;;;3.95;80.24;101831.19;5059961;28;20239;-72
2021/11/22 03:42:03;;;;;;;4.50;4.00;;;;;;;4.18;79.29;101826.34;5060199;28;20662;-70
2021/11/22 03:44:28;;;;;;;4.40;4.00;;;;;;;4.11;79.17;101824.25;5059692;28;20216;-71
2021/11/22 03:46:55;;;;;;;5.00;3.97;;;;;;;4.07;78.85;101830.94;5059813;28;20416;-71
2021/11/22 03:49:21;;;;;;;5.13;4.10;;;;;;;4.14;78.66;101839.91;5060026;28;20176;-72
2021/11/22 03:51:46;;;;;;;5.03;3.90;;;;;;;3.97;79.40;101845.03;5059407;28;20511;-70
2021/11/22 03:54:12;;;;;;;5.10;4.53;;;;;;;4.02;79.27;101835.88;5059581;28;20503;-71
2021/11/22 03:56:38;;;;;;;5.27;4.53;;;;;;;4.21;78.16;101834.28;5059742;28;20201;-71
2021/11/22 03:59:05;;;;;;;6.00;5.00;;;;;;;4.19;78.07;101847.13;5059431;28;20473;-71
2021/11/22 04:01:30;;;;;;;5.43;4.80;;;;;;;4.10;78.52;101844.03;5059175;28;20416;-71
2021/11/22 04:03:56;;;;;;;5.93;4.83;;;;;;;4.29;78.71;101843.31;5059690;28;20422;-71
2021/11/22 04:06:21;;;;;;;5.10;4.33;;;;;;;4.17;78.73;101853.00;5059255;28;20170;-72
2021/11/22 04:08:47;;;;;;;4.90;4.50;;;;;;;3.92;79.51;101854.22;5058658;28;20174;-72
2021/11/22 04:11:12;;;;;;;7.80;4.80;;;;;;;3.83;80.68;101858.88;5059650;28;20185;-72
2021/11/22 04:13:37;;;;;;;7.20;4.60;;;;;;;4.01;80.18;101859.88;5059213;28;20176;-71
2021/11/22 04:16:04;;;;;;;5.60;5.10;;;;;;;4.11;79.53;101862.97;5059126;28;20177;-70
2021/11/22 04:18:30;;;;;;;7.13;5.27;;;;;;;4.21;79.49;101863.56;5059637;28;20263;-71
2021/11/22 04:20:55;;;;;;;5.97;5.20;;;;;;;4.03;79.99;101865.13;5059020;28;20550;-72
2021/11/22 04:23:21;;;;;;;5.80;4.60;;;;;;;3.91;80.87;101870.53;5058731;28;20849;-71
2021/11/22 04:25:47;;;;;;;5.97;5.03;;;;;;;3.84;81.25;101868.41;5059422;28;20215;-71
2021/11/22 04:28:12;;;;;;;8.17;5.10;;;;;;;3.88;80.66;101872.91;5059012;28;20477;-72
2021/11/22 04:30:38;;;;;;;8.70;4.67;;;;;;;3.62;82.04;101882.66;5058773;28;20177;-72
2021/11/22 04:33:04;;;;;;;5.77;5.17;;;;;;;3.72;81.37;101873.75;5058927;28;20177;-72
2021/11/22 04:35:30;;;;;;;5.57;4.93;;;;;;;3.73;81.53;101885.84;5058632;28;20431;-72
2021/11/22 04:37:55;;;;;;;9.73;5.60;;;;;;;3.70;81.59;101886.56;5058536;28;20205;-71
2021/11/22 04:40:20;;;;;;;7.10;5.40;;;;;;;3.67;81.21;101888.09;5059655;28;20176;-71
2021/11/22 04:42:47;;;;;;;6.27;5.67;;;;;;;3.68;81.29;101892.44;5059282;28;20207;-71
2021/11/22 04:45:17;;;;;;;6.10;4.63;;;;;;;3.57;81.55;101897.00;5059060;28;20455;-71
2021/11/22 04:47:45;;;;;;;6.00;5.47;;;;;;;3.34;82.60;101896.59;5059209;28;20403;-72
2021/11/22 04:50:10;;;;;;;6.70;5.63;;;;;;;3.59;81.24;101904.84;5057868;28;20420;-72
2021/11/22 04:52:36;;;;;;;8.10;5.40;;;;;;;3.84;80.88;101905.41;5058370;28;20568;-72
2021/11/22 04:55:03;;;;;;;9.20;6.40;;;;;;;3.78;81.66;101909.34;5059107;28;20245;-72
2021/11/22 04:57:29;;;;;;;8.40;6.17;;;;;;;3.59;81.79;101907.41;5057907;28;20185;-71
2021/11/22 04:59:54;;;;;;;9.20;5.80;;;;;;;3.64;81.53;101914.59;5060504;28;20429;-73
2021/11/22 05:02:20;;;;;;;10.53;6.20;;;;;;;3.56;81.73;101915.88;5059579;28;20169;-71
2021/11/22 05:04:45;;;;;;;10.60;6.00;;;;;;;3.53;82.09;101923.41;5058336;28;20205;-70
2021/11/22 05:07:11;;;;;;;7.27;6.50;;;;;;;3.52;82.24;101921.66;5058417;28;20174;-71
2021/11/22 05:09:36;;;;;;;16.80;7.27;;;;;;;3.59;81.17;101923.75;5059074;28;20431;-71
2021/11/22 05:12:02;;;;;;;8.07;6.90;;;;;;;3.76;81.18;101926.41;5058494;28;20170;-72
2021/11/22 05:14:27;;;;;;;7.03;6.33;;;;;;;3.87;80.07;101936.53;5058572;28;20170;-71
2021/11/22 05:16:53;;;;;;;9.10;7.10;;;;;;;3.97;80.03;101939.63;5058864;28;20527;-72
2021/11/22 05:19:19;;;;;;;13.30;7.77;;;;;;;3.97;80.18;101937.06;5058215;28;20481;-71
2021/11/22 05:21:44;;;;;;;9.57;7.53;;;;;;;3.84;80.68;101938.94;5057808;28;20184;-71
2021/11/22 05:24:10;;;;;;;10.37;6.83;;;;;;;3.84;80.13;101931.22;5057662;28;20198;-72
2021/11/22 05:26:36;;;;;;;8.20;7.43;;;;;;;3.71;80.63;101942.50;5059279;28;20208;-72
2021/11/22 05:29:03;;;;;;;9.63;7.90;;;;;;;3.53;81.85;101949.19;5061882;28;20184;-70
2021/11/22 05:31:29;;;;;;;9.90;8.53;;;;;;;3.74;81.48;101951.25;5058060;28;20215;-71
2021/11/22 05:33:54;;;;;;;9.40;8.07;;;;;;;3.74;81.58;101949.53;5058053;28;20479;-71
2021/11/22 05:36:20;;;;;;;11.83;8.53;;;;;;;3.68;81.12;101957.81;5057295;28;20174;-70
2021/11/22 05:38:47;;;;;;;8.83;7.97;;;;;;;3.49;81.69;101957.53;5058385;28;20213;-71
2021/11/22 05:41:13;;;;;;;9.87;8.90;;;;;;;3.31;83.19;101963.41;5057993;28;20212;-71
2021/11/22 05:43:39;;;;;;;11.10;9.43;;;;;;;3.77;81.93;101965.19;5057821;28;20480;-71
2021/11/22 05:46:05;;;;;;;14.67;10.93;;;;;;;3.63;81.90;101966.97;5058474;28;20485;-70
2021/11/22 05:48:31;;;;;;;11.10;9.30;;;;;;;3.91;80.83;101971.16;5058025;28;20287;-71
2021/11/22 05:50:57;;;;;;;10.80;8.87;;;;;;;3.79;80.19;101967.84;5057837;28;20503;-71
2021/11/22 05:53:23;;;;;;;11.03;9.17;;;;;;;3.88;80.07;101968.38;5057466;28;20869;-72
2021/11/22 05:55:51;;;;;;;10.60;9.07;;;;;;;3.80;80.92;101972.22;5057784;28;20469;-72
2021/11/22 05:58:18;;;;;;;14.17;9.47;;;;;;;3.73;80.62;101976.13;5058189;28;20495;-72
2021/11/22 06:00:43;;;;;;;11.13;9.47;;;;;;;3.70;80.46;101986.28;5058596;28;20514;-71
2021/11/22 06:03:13;;;;;;;13.77;10.30;;;;;;;3.82;80.24;101989.56;5060461;28;20836;-71
2021/11/22 06:05:39;;;;;;;11.87;9.13;;;;;;;3.69;80.68;101990.56;5062045;28;20169;-71
2021/11/22 06:08:05;;;;;;;20.00;13.00;;;;;;;3.83;81.36;102001.66;5061511;28;20409;-71
2021/11/22 06:10:30;;;;;;;13.47;10.10;;;;;;;3.83;81.43;101999.06;5061533;28;20227;-71
2021/11/22 06:12:56;;;;;;;14.53;9.10;;;;;;;4.02;80.24;101998.44;5061704;28;20394;-71
2021/11/22 06:15:22;;;;;;;14.93;10.10;;;;;;;3.59;81.48;102001.13;5061360;28;20416;-71
2021/11/22 06:17:47;;;;;;;14.43;10.50;;;;;;;3.86;81.24;102004.41;5060642;28;20174;-70
2021/11/22 06:20:13;;;;;;;13.63;11.50;;;;;;;3.73;81.12;102004.50;5060891;28;20483;-71
2021/11/22 06:22:38;;;;;;;13.77;10.57;;;;;;;3.90;80.45;102010.63;5060346;28;20180;-71
2021/11/22 06:25:05;;;;;;;12.10;9.20;;;;;;;4.09;79.60;102009.13;5060996;28;20209;-71
2021/11/22 06:27:30;;;;;;;10.00;8.90;;;;;;;4.12;80.18;102011.84;5061581;28;20253;-72
2021/11/22 06:29:56;;;;;;;12.07;9.63;;;;;;;3.96;79.65;102023.88;5061035;28;20793;-71
2021/11/22 06:32:27;;;;;;;12.70;10.00;;;;;;;4.25;79.26;102023.75;5061063;28;20173;-72
2021/11/22 06:34:52;;;;;;;21.83;18.37;;;;;;;4.07;79.56;102032.22;5061113;28;20162;-71
2021/11/22 06:37:18;;;;;;;12.70;10.40;;;;;;;4.14;79.36;102029.22;5060787;28;20427;-72
2021/11/22 06:39:43;;;;;;;12.50;9.80;;;;;;;4.13;78.83;102045.50;5060800;28;20456;-71
2021/11/22 06:42:08;;;;;;;13.63;11.87;;;;;;;3.98;80.06;102047.22;5061088;28;20320;-72
2021/11/22 06:44:34;;;;;;;17.07;10.00;;;;;;;3.93;80.45;102051.22;5060755;28;20214;-71
2021/11/22 06:47:00;;;;;;;12.53;11.23;;;;;;;4.02;79.67;102044.88;5060875;28;20228;-71
2021/11/22 06:49:25;;;;;;;11.63;9.93;;;;;;;3.94;80.45;102058.13;5061100;28;20178;-72
2021/11/22 06:51:52;;;;;;;15.27;10.30;;;;;;;3.69;81.11;102062.75;5060361;28;20225;-72
2021/11/22 06:54:17;;;;;;;12.13;10.30;;;;;;;3.78;80.80;102070.13;5060536;28;20227;-70
2021/11/22 06:56:43;;;;;;;22.87;11.27;;;;;;;3.95;80.11;102071.13;5061082;28;20713;-71
2021/11/22 06:59:08;;;;;;;20.67;13.20;;;;;;;3.89;81.07;102075.94;5060416;28;20181;-71
2021/11/22 07:01:33;;;;;;;14.80;11.50;;;;;;;4.10;79.34;102077.97;5059684;28;20211;-71
2021/11/22 07:03:59;;;;;;;11.07;9.87;;;;;;;4.15;79.04;102079.13;5061079;28;20266;-71
2021/11/22 07:06:24;;;;;;;11.83;9.80;;;;;;;4.30;78.15;102077.44;5060438;28;20205;-70
2021/11/22 07:08:50;;;;;;;12.63;11.17;;;;;;;4.32;78.66;102080.09;5060439;28;20206;-70
2021/11/22 07:11:15;;;;;;;12.37;10.20;;;;;;;4.22;78.31;102089.00;5060653;28;20432;-71
2021/11/22 07:13:41;;;;;;;12.00;9.57;;;;;;;4.20;78.23;102086.31;5059124;28;20169;-70
2021/11/22 07:16:06;;;;;;;11.03;9.83;;;;;;;4.37;77.56;102092.47;5059620;28;20185;-72
2021/11/22 07:18:32;;;;;;;11.27;10.07;;;;;;;4.63;77.26;102097.31;5060608;28;20218;-72
2021/11/22 07:20:58;;;;;;;13.77;8.60;;;;;;;4.61;76.88;102101.50;5060254;28;20170;-72
2021/11/22 07:23:25;;;;;;;12.40;8.80;;;;;;;4.64;77.13;102105.16;5059841;28;20794;-71
2021/11/22 07:25:52;;;;;;;10.63;9.20;;;;;;;4.65;76.29;102111.19;5059817;28;20436;-71
2021/11/22 07:28:17;;;;;;;11.40;8.77;;;;;;;4.50;77.24;102104.34;5060096;28;20416;-73
2021/11/22 07:30:43;;;;;;;13.93;12.40;;;;;;;4.60;76.89;102113.53;5059926;28;20466;-71
2021/11/22 07:33:10;;;;;;;15.53;8.17;;;;;;;4.86;75.93;102119.28;5060123;28;20223;-72
2021/11/22 07:35:35;;;;;;;9.70;8.50;;;;;;;4.95;75.34;102121.44;5059067;28;20713;-72
2021/11/22 07:38:02;;;;;;;10.40;8.40;;;;;;;4.95;76.13;102121.44;5059818;28;20436;-72
2021/11/22 07:40:27;;;;;;;13.00;9.30;;;;;;;5.05;75.08;102128.91;5042785;28;20181;-71
2021/11/22 07:42:53;;;;;;;9.90;8.77;;;;;;;4.94;75.30;102125.75;5059439;28;20427;-72
2021/11/22 07:45:23;;;;;;;11.00;9.10;;;;;;;5.06;74.99;102131.59;5059658;28;20252;-72
2021/11/22 07:47:49;;;;;;;13.73;9.20;;;;;;;4.95;75.09;102131.78;5059950;28;20453;-72
2021/11/22 07:50:15;;;;;;;11.67;9.40;;;;;;;5.70;72.49;102130.63;5059578;28;20508;-72
2021/11/22 07:52:41;;;;;;;15.73;8.97;;;;;;;7.04;68.46;102125.97;5059184;28;20739;-71
2021/11/22 07:55:06;;;;;;;9.43;7.47;;;;;;;8.20;63.30;102128.47;5059219;28;20400;-70
2021/11/22 07:57:32;;;;;;;9.40;7.20;;;;;;;8.95;61.66;102124.53;5059297;28;20189;-71
2021/11/22 07:59:57;;;;;;;7.40;6.40;;;;;;;8.66;60.24;102129.50;5059021;28;20303;-71
2021/11/22 08:02:23;;;;;;;9.57;6.27;;;;;;;9.23;60.22;102123.00;5057309;28;20279;-72
2021/11/22 08:04:48;;;;;;;9.77;6.90;;;;;;;9.97;57.84;102120.41;5059046;28;20224;-72
2021/11/22 08:07:19;;;;;;;11.03;6.73;;;;;;;10.42;54.68;102128.03;5058406;28;20252;-70
2021/11/22 08:09:58;;;;;;;6.60;5.57;;;;;;;10.45;55.23;102125.53;5059536;28;20222;-70
2021/11/22 08:12:27;;;;;;;7.63;6.27;;;;;;;10.74;54.27;102122.97;5059088;28;20418;-70
2021/11/22 08:15:09;;;;;;;8.23;6.30;;;;;;;10.69;55.38;102119.34;5059325;28;20820;-69
2021/11/22 08:17:39;;;;;;;6.90;6.27;;;;;;;9.73;56.58;102143.91;5058133;28;20443;-70
2021/11/22 08:20:09;;;;;;;8.00;6.50;;;;;;;10.04;55.56;102137.13;5058801;28;20471;-70
2021/11/22 08:22:34;;;;;;;7.30;6.10;;;;;;;9.96;56.15;102142.09;5058458;28;20473;-70
2021/11/22 08:25:00;;;;;;;7.80;6.23;;;;;;;10.41;54.96;102141.03;5058265;28;20464;-70
2021/11/22 08:27:30;;;;;;;8.10;5.70;;;;;;;10.72;53.67;102139.41;5058998;28;20169;-70
2021/11/22 08:29:57;;;;;;;6.63;5.80;;;;;;;10.88;53.14;102141.66;5058896;28;20170;-70
2021/11/22 08:32:23;;;;;;;10.07;6.20;;;;;;;10.65;53.63;102143.56;5058454;28;20424;-70
2021/11/22 08:34:48;;;;;;;9.63;5.43;;;;;;;11.18;53.33;102139.94;5059120;28;20405;-70
2021/11/22 08:37:14;;;;;;;9.60;5.60;;;;;;;11.81;50.82;102139.09;5057791;28;20170;-70
2021/11/22 08:39:40;;;;;;;6.03;5.53;;;;;;;11.72;51.04;102144.97;5058476;28;20446;-72
2021/11/22 08:42:06;;;;;;;6.63;5.50;;;;;;;11.54;51.65;102154.88;5058874;28;20448;-72
2021/11/22 08:44:32;;;;;;;9.00;5.57;;;;;;;11.47;51.70;102153.81;5058800;28;20220;-73
2021/11/22 08:46:58;;;;;;;9.30;5.67;;;;;;;11.46;51.67;102160.78;5058468;28;20457;-72
2021/11/22 08:49:24;;;;;;;7.37;5.40;;;;;;;12.10;49.65;102162.56;5059039;28;20680;-72
2021/11/22 08:51:50;;;;;;;9.60;7.17;;;;;;;12.26;49.47;102163.84;5052569;28;20464;-71
2021/11/22 08:54:15;;;;;;;8.27;5.50;;;;;;;11.86;51.04;102167.97;5038244;28;20190;-72
2021/11/22 08:56:41;;;;;;;7.50;6.40;;;;;;;11.50;50.96;102163.47;5038713;28;20174;-72
2021/11/22 08:59:06;;;;;;;12.43;11.13;;;;;;;11.75;49.98;102168.53;5021281;28;20205;-70
2021/11/22 09:01:32;;;;;;;6.70;6.10;;;;;;;13.00;48.65;102173.44;5038393;28;20178;-71
2021/11/22 09:03:57;;;;;;;6.00;5.50;;;;;;;13.05;47.84;102174.44;5021737;28;20273;-71
2021/11/22 09:06:23;;;;;;;8.80;6.80;;;;;;;12.13;50.44;102173.09;5021161;28;20257;-71
2021/11/22 09:08:49;;;;;;;6.30;5.20;;;;;;;12.01;50.78;102184.09;5038126;28;20180;-71
2021/11/22 09:11:15;;;;;;;5.90;5.40;;;;;;;12.90;47.73;102181.94;5038455;28;20232;-72
2021/11/22 09:13:41;;;;;;;6.87;5.50;;;;;;;12.60;48.84;102193.44;5038038;28;20224;-71
2021/11/22 09:16:07;;;;;;;6.30;5.17;;;;;;;12.63;49.35;102198.75;5038058;28;20703;-70
2021/11/22 09:18:32;;;;;;;6.70;5.37;;;;;;;12.64;49.08;102201.41;5038228;28;20229;-72
2021/11/22 09:20:58;;;;;;;5.27;4.77;;;;;;;12.30;48.90;102197.06;5038069;28;20170;-71
2021/11/22 09:23:23;;;;;;;7.70;4.57;;;;;;;12.86;48.40;102199.31;5037714;28;20251;-71
2021/11/22 09:25:51;;;;;;;5.33;4.83;;;;;;;13.07;48.00;102196.31;5038275;28;20512;-71
2021/11/22 09:28:17;;;;;;;6.13;5.53;;;;;;;12.20;49.30;102205.50;5037971;28;20445;-71
2021/11/22 09:30:42;;;;;;;6.33;5.73;;;;;;;12.75;46.98;102200.78;5037868;28;20423;-71
2021/11/22 09:33:10;;;;;;;7.63;6.87;;;;;;;12.81;48.29;102206.16;5037953;28;20174;-75
2021/11/22 09:35:36;;;;;;;9.30;5.93;;;;;;;13.64;46.13;102202.78;5038640;28;20181;-70
2021/11/22 09:38:02;;;;;;;5.90;5.30;;;;;;;12.68;47.88;102217.16;5041951;28;20441;-72
2021/11/22 09:40:28;;;;;;;6.90;6.20;;;;;;;13.04;47.88;102219.78;5042600;28;20292;-72
2021/11/22 09:42:55;;;;;;;6.20;5.13;;;;;;;12.64;47.79;102221.47;5041821;28;20511;-73
2021/11/22 09:45:21;;;;;;;7.90;6.93;;;;;;;12.97;47.48;102210.94;5046543;28;20217;-73
2021/11/22 09:47:47;;;;;;;6.10;5.50;;;;;;;12.23;48.48;102226.50;5049415;28;20705;-73
2021/11/22 09:50:13;;;;;;;6.27;5.67;;;;;;;12.28;48.31;102225.75;5045609;28;20170;-71
2021/11/22 09:52:38;;;;;;;6.10;5.43;;;;;;;12.89;47.11;102219.44;5041858;28;20548;-72
2021/11/22 09:55:04;;;;;;;10.20;8.50;;;;;;;13.81;46.07;102212.72;5042752;28;20162;-69
2021/11/22 09:57:30;;;;;;;6.87;5.67;;;;;;;13.19;46.31;102215.75;5041798;28;20178;-71
2021/11/22 09:59:55;;;;;;;8.70;5.50;;;;;;;12.60;47.27;102222.22;5041676;28;20174;-71
2021/11/22 10:02:43;;;;;;;7.73;5.90;;;;;;;12.24;47.64;102213.44;5041805;28;20174;-71
2021/11/22 10:05:21;;;;;;;15.83;13.57;;;;;;;12.41;47.95;102226.97;5024412;28;20230;-70
2021/11/22 10:07:58;;;;;;;7.10;6.40;;;;;;;12.08;49.12;102222.63;5024364;28;20420;-70
2021/11/22 10:10:24;;;;;;;5.50;4.90;;;;;;;12.88;47.55;102217.66;5041724;28;20466;-71
2021/11/22 10:12:50;;;;;;;5.43;4.90;;;;;;;12.74;46.82;102226.06;5041220;28;20428;-71
2021/11/22 10:15:16;;;;;;;7.10;6.43;;;;;;;13.12;48.31;102210.41;5041386;28;20474;-72
2021/11/22 10:17:44;;;;;;;6.47;5.60;;;;;;;12.51;49.71;102219.38;5041245;28;20416;-71
2021/11/22 10:20:13;;;;;;;5.27;4.77;;;;;;;12.49;46.21;102219.34;5041786;28;20174;-71
2021/11/22 10:23:08;;;;;;;6.63;4.83;;;;;;;12.53;47.17;102215.06;5041057;28;20503;-73
2021/11/22 10:25:40;;;;;;;5.43;4.93;;;;;;;12.18;47.27;102215.00;5025407;28;20474;-69
2021/11/22 10:28:11;;;;;;;6.70;4.90;;;;;;;12.55;46.37;102208.13;5041254;28;20504;-71
2021/11/22 10:30:45;;;;;;;5.57;4.70;;;;;;;12.36;46.73;102218.13;5041230;28;20413;-69
2021/11/22 10:33:13;;;;;;;7.80;7.03;;;;;;;13.02;46.78;102218.88;5041069;28;20412;-71
2021/11/22 10:35:40;;;;;;;6.90;5.50;;;;;;;12.11;46.41;102230.56;5041139;28;20405;-71
2021/11/22 10:38:14;;;;;;;8.17;4.70;;;;;;;12.77;44.89;102226.16;5024192;28;20429;-70
2021/11/22 10:40:43;;;;;;;6.73;4.73;;;;;;;12.85;45.11;102215.84;5040970;28;20455;-70
2021/11/22 10:43:08;;;;;;;4.80;4.30;;;;;;;12.84;43.57;102216.72;5040778;28;20682;-71
2021/11/22 10:45:38;;;;;;;5.50;3.90;;;;;;;12.75;44.15;102219.97;5040673;28;20483;-70
2021/11/22 10:48:13;;;;;;;6.60;4.70;;;;;;;12.58;44.34;102218.69;5040983;28;20166;-69
2021/11/22 10:50:47;;;;;;;5.70;4.73;;;;;;;12.39;44.45;102218.19;5040912;28;20449;-71
2021/11/22 10:53:13;;;;;;;3.93;3.57;;;;;;;13.05;42.85;102216.31;5040631;28;20824;-71
2021/11/22 10:55:45;;;;;;;4.50;3.90;;;;;;;12.53;43.41;102229.03;5040577;28;20437;-72
2021/11/22 10:58:29;;;;;;;5.07;4.57;;;;;;;12.23;43.97;102229.09;5040701;28;20732;-71
2021/11/22 11:00:54;;;;;;;5.43;4.33;;;;;;;12.91;42.27;102229.09;5040386;28;20539;-71
2021/11/22 11:03:20;;;;;;;6.30;4.57;;;;;;;12.70;42.38;102229.44;5040111;28;20759;-71
2021/11/22 11:05:56;;;;;;;4.87;4.37;;;;;;;12.85;42.40;102228.94;5040715;28;20581;-70
2021/11/22 11:08:21;;;;;;;5.80;4.90;;;;;;;12.50;43.37;102226.31;5040392;28;20162;-71
2021/11/22 11:10:51;;;;;;;7.70;4.10;;;;;;;12.94;42.23;102228.28;5040215;28;20513;-70
2021/11/22 11:13:17;;;;;;;4.07;3.60;;;;;;;12.33;42.77;102222.41;5040049;28;20182;-69
2021/11/22 11:15:42;;;;;;;4.77;4.33;;;;;;;13.20;39.98;102215.78;5040127;28;20453;-71
2021/11/22 11:18:24;;;;;;;7.30;3.80;;;;;;;12.14;41.29;102211.47;5007069;28;20173;-78
2021/11/22 11:20:49;;;;;;;5.00;3.40;;;;;;;12.21;42.74;102210.75;5040136;28;20170;-75
2021/11/22 11:23:15;;;;;;;4.43;3.87;;;;;;;11.71;44.56;102211.09;5039118;28;20431;-71
2021/11/22 11:25:40;;;;;;;4.63;3.60;;;;;;;12.22;43.63;102211.66;5022665;28;20201;-71